sensor_id;sensor_type;location;lat;lon;timestamp;temperature;humidity
15328;DHT22;7764;51.430;6.840;2023-11-21T00:00:02;8.40;99.90
15328;DHT22;7764;51.430;6.840;2023-11-21T00:02:29;8.40;99.90
15328;DHT22;7764;51.430;6.840;2023-11-21T00:04:55;8.50;99.90
15328;DHT22;7764;51.430;6.840;2023-11-21T00:07:22;8.50;99.90
15328;DHT22;7764;51.430;6.840;2023-11-21T00:09:49;8.50;99.90
15328;DHT22;7764;51.430;6.840;2023-11-21T00:12:16;8.60;99.90
15328;DHT22;7764;51.430;6.840;2023-11-21T00:14:44;8.60;99.90
15328;DHT22;7764;51.430;6.840;2023-11-21T00:17:11;8.70;99.90
15328;DHT22;7764;51.430;6.840;2023-11-21T00:19:38;8.70;99.90
15328;DHT22;7764;51.430;6.840;2023-11-21T00:22:05;8.70;99.90
15328;DHT22;7764;51.430;6.840;2023-11-21T00:24:32;8.70;99.90
15328;DHT22;7764;51.430;6.840;2023-11-21T00:26:59;8.80;99.90
15328;DHT22;7764;51.430;6.840;2023-11-21T00:29:29;8.80;99.90
15328;DHT22;7764;51.430;6.840;2023-11-21T00:31:57;8.80;99.90
15328;DHT22;7764;51.430;6.840;2023-11-21T00:34:24;8.80;99.90
15328;DHT22;7764;51.430;6.840;2023-11-21T00:36:51;8.80;99.90
15328;DHT22;7764;51.430;6.840;2023-11-21T00:39:17;8.80;99.90
15328;DHT22;7764;51.430;6.840;2023-11-21T00:41:44;8.90;99.90
15328;DHT22;7764;51.430;6.840;2023-11-21T00:44:11;8.90;99.90
15328;DHT22;7764;51.430;6.840;2023-11-21T00:46:38;8.90;99.90
15328;DHT22;7764;51.430;6.840;2023-11-21T00:49:06;8.90;99.90
15328;DHT22;7764;51.430;6.840;2023-11-21T00:51:33;8.90;99.90
15328;DHT22;7764;51.430;6.840;2023-11-21T00:54:01;8.90;99.90
15328;DHT22;7764;51.430;6.840;2023-11-21T00:56:28;8.80;99.90
15328;DHT22;7764;51.430;6.840;2023-11-21T00:58:55;8.80;99.90
15328;DHT22;7764;51.430;6.840;2023-11-21T01:01:22;8.80;99.90
15328;DHT22;7764;51.430;6.840;2023-11-21T01:03:50;8.70;99.90
15328;DHT22;7764;51.430;6.840;2023-11-21T01:06:18;8.80;99.90
15328;DHT22;7764;51.430;6.840;2023-11-21T01:08:45;8.80;99.90
15328;DHT22;7764;51.430;6.840;2023-11-21T01:11:12;8.80;99.90
15328;DHT22;7764;51.430;6.840;2023-11-21T01:13:39;8.80;99.90
15328;DHT22;7764;51.430;6.840;2023-11-21T01:16:08;8.80;99.90
15328;DHT22;7764;51.430;6.840;2023-11-21T01:18:35;8.80;99.90
15328;DHT22;7764;51.430;6.840;2023-11-21T01:21:01;8.90;99.90
15328;DHT22;7764;51.430;6.840;2023-11-21T01:23:30;8.90;99.90
15328;DHT22;7764;51.430;6.840;2023-11-21T01:25:57;8.90;99.90
15328;DHT22;7764;51.430;6.840;2023-11-21T01:28:24;8.90;99.90
15328;DHT22;7764;51.430;6.840;2023-11-21T01:30:52;8.90;99.90
15328;DHT22;7764;51.430;6.840;2023-11-21T01:33:21;8.90;99.90
15328;DHT22;7764;51.430;6.840;2023-11-21T01:35:50;8.90;99.90
15328;DHT22;7764;51.430;6.840;2023-11-21T01:38:18;9.00;99.90
15328;DHT22;7764;51.430;6.840;2023-11-21T01:40:46;8.90;99.90
15328;DHT22;7764;51.430;6.840;2023-11-21T01:43:13;8.90;99.90
15328;DHT22;7764;51.430;6.840;2023-11-21T01:45:40;8.90;99.90
15328;DHT22;7764;51.430;6.840;2023-11-21T01:48:07;8.90;99.90
15328;DHT22;7764;51.430;6.840;2023-11-21T01:50:34;8.90;99.90
15328;DHT22;7764;51.430;6.840;2023-11-21T01:53:02;8.90;99.90
15328;DHT22;7764;51.430;6.840;2023-11-21T01:55:29;8.90;99.90
15328;DHT22;7764;51.430;6.840;2023-11-21T01:57:57;9.00;99.90
15328;DHT22;7764;51.430;6.840;2023-11-21T02:00:25;9.00;99.90
15328;DHT22;7764;51.430;6.840;2023-11-21T02:02:53;8.90;99.90
15328;DHT22;7764;51.430;6.840;2023-11-21T02:05:20;8.90;99.90
15328;DHT22;7764;51.430;6.840;2023-11-21T02:07:48;8.90;99.90
15328;DHT22;7764;51.430;6.840;2023-11-21T02:10:14;9.00;99.90
15328;DHT22;7764;51.430;6.840;2023-11-21T02:12:42;9.00;99.90
15328;DHT22;7764;51.430;6.840;2023-11-21T02:15:12;9.00;99.90
15328;DHT22;7764;51.430;6.840;2023-11-21T02:17:42;9.10;99.90
15328;DHT22;7764;51.430;6.840;2023-11-21T02:20:10;9.10;99.90
15328;DHT22;7764;51.430;6.840;2023-11-21T02:22:41;9.10;99.90
15328;DHT22;7764;51.430;6.840;2023-11-21T02:25:10;9.10;99.90
15328;DHT22;7764;51.430;6.840;2023-11-21T02:27:37;9.00;99.90
15328;DHT22;7764;51.430;6.840;2023-11-21T02:30:04;9.00;99.90
15328;DHT22;7764;51.430;6.840;2023-11-21T02:32:33;9.00;99.90
15328;DHT22;7764;51.430;6.840;2023-11-21T02:35:01;9.00;99.90
15328;DHT22;7764;51.430;6.840;2023-11-21T02:37:33;9.00;99.90
15328;DHT22;7764;51.430;6.840;2023-11-21T02:40:00;9.10;99.90
15328;DHT22;7764;51.430;6.840;2023-11-21T02:42:31;9.10;99.90
15328;DHT22;7764;51.430;6.840;2023-11-21T02:44:57;9.20;99.90
15328;DHT22;7764;51.430;6.840;2023-11-21T02:47:24;9.10;99.90
15328;DHT22;7764;51.430;6.840;2023-11-21T02:49:51;9.10;99.90
15328;DHT22;7764;51.430;6.840;2023-11-21T02:52:18;9.10;99.90
15328;DHT22;7764;51.430;6.840;2023-11-21T02:54:45;9.10;99.90
15328;DHT22;7764;51.430;6.840;2023-11-21T02:57:12;9.10;99.90
15328;DHT22;7764;51.430;6.840;2023-11-21T02:59:41;9.10;99.90
15328;DHT22;7764;51.430;6.840;2023-11-21T03:02:07;9.10;99.90
15328;DHT22;7764;51.430;6.840;2023-11-21T03:04:34;9.20;99.90
15328;DHT22;7764;51.430;6.840;2023-11-21T03:07:01;9.20;99.90
15328;DHT22;7764;51.430;6.840;2023-11-21T03:09:29;9.20;99.90
15328;DHT22;7764;51.430;6.840;2023-11-21T03:11:56;9.20;99.90
15328;DHT22;7764;51.430;6.840;2023-11-21T03:14:23;9.20;99.90
15328;DHT22;7764;51.430;6.840;2023-11-21T03:16:51;9.20;99.90
15328;DHT22;7764;51.430;6.840;2023-11-21T03:19:18;9.20;99.90
15328;DHT22;7764;51.430;6.840;2023-11-21T03:21:44;9.20;99.90
15328;DHT22;7764;51.430;6.840;2023-11-21T03:24:11;9.20;99.90
15328;DHT22;7764;51.430;6.840;2023-11-21T03:26:38;9.20;99.90
15328;DHT22;7764;51.430;6.840;2023-11-21T03:29:05;9.20;99.90
15328;DHT22;7764;51.430;6.840;2023-11-21T03:31:32;9.30;99.90
15328;DHT22;7764;51.430;6.840;2023-11-21T03:34:00;9.30;99.90
15328;DHT22;7764;51.430;6.840;2023-11-21T03:36:27;9.30;99.90
15328;DHT22;7764;51.430;6.840;2023-11-21T03:38:53;9.30;99.90
15328;DHT22;7764;51.430;6.840;2023-11-21T03:41:21;9.20;99.90
15328;DHT22;7764;51.430;6.840;2023-11-21T03:43:48;9.30;99.90
15328;DHT22;7764;51.430;6.840;2023-11-21T03:46:14;9.30;99.90
15328;DHT22;7764;51.430;6.840;2023-11-21T03:48:41;9.30;99.90
15328;DHT22;7764;51.430;6.840;2023-11-21T03:51:10;9.30;99.90
15328;DHT22;7764;51.430;6.840;2023-11-21T03:53:36;9.30;99.90
15328;DHT22;7764;51.430;6.840;2023-11-21T03:56:04;9.30;99.90
15328;DHT22;7764;51.430;6.840;2023-11-21T03:58:31;9.30;99.90
15328;DHT22;7764;51.430;6.840;2023-11-21T04:00:58;9.30;99.90
15328;DHT22;7764;51.430;6.840;2023-11-21T04:03:24;9.30;99.90
15328;DHT22;7764;51.430;6.840;2023-11-21T04:05:51;9.30;99.90
15328;DHT22;7764;51.430;6.840;2023-11-21T04:08:19;9.20;99.90
15328;DHT22;7764;51.430;6.840;2023-11-21T04:10:46;9.20;99.90
15328;DHT22;7764;51.430;6.840;2023-11-21T04:13:14;9.30;99.90
15328;DHT22;7764;51.430;6.840;2023-11-21T04:15:40;9.30;99.90
15328;DHT22;7764;51.430;6.840;2023-11-21T04:18:07;9.30;99.90
15328;DHT22;7764;51.430;6.840;2023-11-21T04:20:34;9.30;99.90
15328;DHT22;7764;51.430;6.840;2023-11-21T04:23:01;9.30;99.90
15328;DHT22;7764;51.430;6.840;2023-11-21T04:25:31;9.30;99.90
15328;DHT22;7764;51.430;6.840;2023-11-21T04:27:58;9.30;99.90
15328;DHT22;7764;51.430;6.840;2023-11-21T04:30:25;9.30;99.90
15328;DHT22;7764;51.430;6.840;2023-11-21T04:32:52;9.30;99.90
15328;DHT22;7764;51.430;6.840;2023-11-21T04:35:19;9.30;99.90
15328;DHT22;7764;51.430;6.840;2023-11-21T04:37:45;9.30;99.90
15328;DHT22;7764;51.430;6.840;2023-11-21T04:40:13;9.30;99.90
15328;DHT22;7764;51.430;6.840;2023-11-21T04:42:41;9.30;99.90
15328;DHT22;7764;51.430;6.840;2023-11-21T04:45:09;9.30;99.90
15328;DHT22;7764;51.430;6.840;2023-11-21T04:47:37;9.30;99.90
15328;DHT22;7764;51.430;6.840;2023-11-21T04:50:04;9.30;99.90
15328;DHT22;7764;51.430;6.840;2023-11-21T04:52:32;9.30;99.90
15328;DHT22;7764;51.430;6.840;2023-11-21T04:54:59;9.30;99.90
15328;DHT22;7764;51.430;6.840;2023-11-21T04:57:27;9.30;99.90
15328;DHT22;7764;51.430;6.840;2023-11-21T04:59:56;9.30;99.90
15328;DHT22;7764;51.430;6.840;2023-11-21T05:02:23;9.20;99.90
15328;DHT22;7764;51.430;6.840;2023-11-21T05:04:50;9.20;99.90
15328;DHT22;7764;51.430;6.840;2023-11-21T05:07:17;9.20;99.90
15328;DHT22;7764;51.430;6.840;2023-11-21T05:09:44;9.20;99.90
15328;DHT22;7764;51.430;6.840;2023-11-21T05:12:11;9.30;99.90
15328;DHT22;7764;51.430;6.840;2023-11-21T05:14:37;9.30;99.90
15328;DHT22;7764;51.430;6.840;2023-11-21T05:17:05;9.30;99.90
15328;DHT22;7764;51.430;6.840;2023-11-21T05:19:33;9.30;99.90
15328;DHT22;7764;51.430;6.840;2023-11-21T05:22:01;9.30;99.90
15328;DHT22;7764;51.430;6.840;2023-11-21T05:24:28;9.20;99.90
15328;DHT22;7764;51.430;6.840;2023-11-21T05:26:55;9.20;99.90
15328;DHT22;7764;51.430;6.840;2023-11-21T05:29:23;9.20;99.90
15328;DHT22;7764;51.430;6.840;2023-11-21T05:31:51;9.20;99.90
15328;DHT22;7764;51.430;6.840;2023-11-21T05:34:23;9.20;99.90
15328;DHT22;7764;51.430;6.840;2023-11-21T05:36:50;9.20;99.90
15328;DHT22;7764;51.430;6.840;2023-11-21T05:39:17;9.10;99.90
15328;DHT22;7764;51.430;6.840;2023-11-21T05:41:45;9.10;99.90
15328;DHT22;7764;51.430;6.840;2023-11-21T05:44:12;9.10;99.90
15328;DHT22;7764;51.430;6.840;2023-11-21T05:46:39;9.20;99.90
15328;DHT22;7764;51.430;6.840;2023-11-21T05:49:08;9.20;99.90
15328;DHT22;7764;51.430;6.840;2023-11-21T05:51:36;9.20;99.90
15328;DHT22;7764;51.430;6.840;2023-11-21T05:54:04;9.10;99.90
15328;DHT22;7764;51.430;6.840;2023-11-21T05:56:31;9.10;99.90
15328;DHT22;7764;51.430;6.840;2023-11-21T05:58:58;9.10;99.90
15328;DHT22;7764;51.430;6.840;2023-11-21T06:01:25;9.10;99.90
15328;DHT22;7764;51.430;6.840;2023-11-21T06:03:55;9.10;99.90
15328;DHT22;7764;51.430;6.840;2023-11-21T06:06:23;9.10;99.90
15328;DHT22;7764;51.430;6.840;2023-11-21T06:08:53;9.10;99.90
15328;DHT22;7764;51.430;6.840;2023-11-21T06:11:19;9.10;99.90
15328;DHT22;7764;51.430;6.840;2023-11-21T06:13:46;9.10;99.90
15328;DHT22;7764;51.430;6.840;2023-11-21T06:16:13;9.10;99.90
15328;DHT22;7764;51.430;6.840;2023-11-21T06:18:42;9.10;99.90
15328;DHT22;7764;51.430;6.840;2023-11-21T06:21:09;9.20;99.90
15328;DHT22;7764;51.430;6.840;2023-11-21T06:23:36;9.20;99.90
15328;DHT22;7764;51.430;6.840;2023-11-21T06:26:05;9.20;99.90
15328;DHT22;7764;51.430;6.840;2023-11-21T06:28:32;9.20;99.90
15328;DHT22;7764;51.430;6.840;2023-11-21T06:30:59;9.20;99.90
15328;DHT22;7764;51.430;6.840;2023-11-21T06:33:30;9.20;99.90
15328;DHT22;7764;51.430;6.840;2023-11-21T06:35:57;9.20;99.90
15328;DHT22;7764;51.430;6.840;2023-11-21T06:38:24;9.20;99.90
15328;DHT22;7764;51.430;6.840;2023-11-21T06:40:55;9.30;99.90
15328;DHT22;7764;51.430;6.840;2023-11-21T06:43:24;9.30;99.90
15328;DHT22;7764;51.430;6.840;2023-11-21T06:45:51;9.40;99.90
15328;DHT22;7764;51.430;6.840;2023-11-21T06:48:18;9.40;99.90
15328;DHT22;7764;51.430;6.840;2023-11-21T06:50:45;9.40;99.90
15328;DHT22;7764;51.430;6.840;2023-11-21T06:53:12;9.30;99.90
15328;DHT22;7764;51.430;6.840;2023-11-21T06:55:39;9.40;99.90
15328;DHT22;7764;51.430;6.840;2023-11-21T06:58:06;9.30;99.90
15328;DHT22;7764;51.430;6.840;2023-11-21T07:00:35;9.40;99.90
15328;DHT22;7764;51.430;6.840;2023-11-21T07:03:02;9.40;99.90
15328;DHT22;7764;51.430;6.840;2023-11-21T07:05:30;9.40;99.90
15328;DHT22;7764;51.430;6.840;2023-11-21T07:07:57;9.30;99.90
15328;DHT22;7764;51.430;6.840;2023-11-21T07:10:29;9.40;99.90
15328;DHT22;7764;51.430;6.840;2023-11-21T07:12:57;9.30;99.90
15328;DHT22;7764;51.430;6.840;2023-11-21T07:15:23;9.30;99.90
15328;DHT22;7764;51.430;6.840;2023-11-21T07:17:52;9.40;99.90
15328;DHT22;7764;51.430;6.840;2023-11-21T07:20:20;9.40;99.90
15328;DHT22;7764;51.430;6.840;2023-11-21T07:22:47;9.40;99.90
15328;DHT22;7764;51.430;6.840;2023-11-21T07:25:13;9.40;99.90
15328;DHT22;7764;51.430;6.840;2023-11-21T07:27:40;9.40;99.90
15328;DHT22;7764;51.430;6.840;2023-11-21T07:30:08;9.40;99.90
15328;DHT22;7764;51.430;6.840;2023-11-21T07:32:35;9.40;99.90
15328;DHT22;7764;51.430;6.840;2023-11-21T07:35:04;9.50;99.90
15328;DHT22;7764;51.430;6.840;2023-11-21T07:37:35;9.50;99.90
15328;DHT22;7764;51.430;6.840;2023-11-21T07:40:03;9.50;99.90
15328;DHT22;7764;51.430;6.840;2023-11-21T07:42:33;9.50;99.90
15328;DHT22;7764;51.430;6.840;2023-11-21T07:45:00;9.50;99.90
15328;DHT22;7764;51.430;6.840;2023-11-21T07:47:28;9.50;99.90
15328;DHT22;7764;51.430;6.840;2023-11-21T07:49:55;9.50;99.90
15328;DHT22;7764;51.430;6.840;2023-11-21T07:52:23;9.50;99.90
15328;DHT22;7764;51.430;6.840;2023-11-21T07:54:50;9.50;99.90
15328;DHT22;7764;51.430;6.840;2023-11-21T07:57:17;9.60;99.90
15328;DHT22;7764;51.430;6.840;2023-11-21T07:59:44;9.50;99.90
15328;DHT22;7764;51.430;6.840;2023-11-21T08:02:11;9.60;99.90
15328;DHT22;7764;51.430;6.840;2023-11-21T08:04:38;9.50;99.90
15328;DHT22;7764;51.430;6.840;2023-11-21T08:07:06;9.60;99.90
15328;DHT22;7764;51.430;6.840;2023-11-21T08:09:34;9.70;99.90
15328;DHT22;7764;51.430;6.840;2023-11-21T08:12:01;9.70;99.90
15328;DHT22;7764;51.430;6.840;2023-11-21T08:14:30;9.70;99.90
15328;DHT22;7764;51.430;6.840;2023-11-21T08:16:58;9.70;99.90
15328;DHT22;7764;51.430;6.840;2023-11-21T08:19:25;9.70;99.90
15328;DHT22;7764;51.430;6.840;2023-11-21T08:21:52;9.70;99.90
15328;DHT22;7764;51.430;6.840;2023-11-21T08:24:20;9.80;99.90
15328;DHT22;7764;51.430;6.840;2023-11-21T08:26:48;9.80;99.90
15328;DHT22;7764;51.430;6.840;2023-11-21T08:29:16;9.90;99.90
15328;DHT22;7764;51.430;6.840;2023-11-21T08:31:43;9.90;99.90
15328;DHT22;7764;51.430;6.840;2023-11-21T08:34:12;9.90;99.90
15328;DHT22;7764;51.430;6.840;2023-11-21T08:36:41;9.80;99.90
15328;DHT22;7764;51.430;6.840;2023-11-21T08:39:09;9.90;99.90
15328;DHT22;7764;51.430;6.840;2023-11-21T08:41:36;9.90;99.90
15328;DHT22;7764;51.430;6.840;2023-11-21T08:44:05;9.90;99.90
15328;DHT22;7764;51.430;6.840;2023-11-21T08:46:33;10.00;99.90
15328;DHT22;7764;51.430;6.840;2023-11-21T08:49:03;10.00;99.90
15328;DHT22;7764;51.430;6.840;2023-11-21T08:51:31;10.00;99.90
15328;DHT22;7764;51.430;6.840;2023-11-21T08:53:59;10.00;99.90
15328;DHT22;7764;51.430;6.840;2023-11-21T08:56:30;9.90;99.90
15328;DHT22;7764;51.430;6.840;2023-11-21T08:58:56;10.00;99.90
15328;DHT22;7764;51.430;6.840;2023-11-21T09:01:25;10.00;99.90
15328;DHT22;7764;51.430;6.840;2023-11-21T09:03:51;10.00;99.90
15328;DHT22;7764;51.430;6.840;2023-11-21T09:06:18;10.00;99.90
15328;DHT22;7764;51.430;6.840;2023-11-21T09:08:45;10.00;99.90
15328;DHT22;7764;51.430;6.840;2023-11-21T09:11:12;10.00;99.90
15328;DHT22;7764;51.430;6.840;2023-11-21T09:13:40;10.00;99.90
15328;DHT22;7764;51.430;6.840;2023-11-21T09:16:07;10.10;99.90
15328;DHT22;7764;51.430;6.840;2023-11-21T09:18:36;10.10;99.90
15328;DHT22;7764;51.430;6.840;2023-11-21T09:21:03;10.10;99.90
15328;DHT22;7764;51.430;6.840;2023-11-21T09:23:30;10.20;99.90
15328;DHT22;7764;51.430;6.840;2023-11-21T09:25:57;10.20;99.90
15328;DHT22;7764;51.430;6.840;2023-11-21T09:28:26;10.30;99.90
15328;DHT22;7764;51.430;6.840;2023-11-21T09:30:53;10.20;99.90
15328;DHT22;7764;51.430;6.840;2023-11-21T09:33:20;10.30;99.90
15328;DHT22;7764;51.430;6.840;2023-11-21T09:35:49;10.30;99.90
15328;DHT22;7764;51.430;6.840;2023-11-21T09:38:16;10.30;99.90
15328;DHT22;7764;51.430;6.840;2023-11-21T09:40:43;10.40;99.90
15328;DHT22;7764;51.430;6.840;2023-11-21T09:43:16;10.40;99.90
15328;DHT22;7764;51.430;6.840;2023-11-21T09:45:46;10.50;99.90
15328;DHT22;7764;51.430;6.840;2023-11-21T09:48:14;10.50;99.90
15328;DHT22;7764;51.430;6.840;2023-11-21T09:50:42;10.40;99.90
15328;DHT22;7764;51.430;6.840;2023-11-21T09:53:47;10.40;99.90
15328;DHT22;7764;51.430;6.840;2023-11-21T09:56:17;10.40;99.90
15328;DHT22;7764;51.430;6.840;2023-11-21T09:58:51;10.30;99.90
15328;DHT22;7764;51.430;6.840;2023-11-21T10:01:19;10.30;99.90
15328;DHT22;7764;51.430;6.840;2023-11-21T10:03:47;10.30;99.90
15328;DHT22;7764;51.430;6.840;2023-11-21T10:06:18;10.30;99.90
15328;DHT22;7764;51.430;6.840;2023-11-21T10:08:49;10.30;99.90
15328;DHT22;7764;51.430;6.840;2023-11-21T10:11:18;10.40;99.90
15328;DHT22;7764;51.430;6.840;2023-11-21T10:13:48;10.50;99.90
15328;DHT22;7764;51.430;6.840;2023-11-21T10:16:19;10.60;99.90
15328;DHT22;7764;51.430;6.840;2023-11-21T10:18:48;10.60;99.90
15328;DHT22;7764;51.430;6.840;2023-11-21T10:21:18;10.70;99.90
15328;DHT22;7764;51.430;6.840;2023-11-21T10:23:45;10.70;99.90
15328;DHT22;7764;51.430;6.840;2023-11-21T10:26:16;10.70;99.90
15328;DHT22;7764;51.430;6.840;2023-11-21T10:28:55;10.80;99.90
15328;DHT22;7764;51.430;6.840;2023-11-21T10:31:23;10.80;99.90
15328;DHT22;7764;51.430;6.840;2023-11-21T10:33:50;10.80;99.90
15328;DHT22;7764;51.430;6.840;2023-11-21T10:36:25;10.80;99.90
15328;DHT22;7764;51.430;6.840;2023-11-21T10:38:55;10.80;99.90
15328;DHT22;7764;51.430;6.840;2023-11-21T10:41:30;10.90;99.90
15328;DHT22;7764;51.430;6.840;2023-11-21T10:43:57;10.90;99.90
15328;DHT22;7764;51.430;6.840;2023-11-21T10:46:25;10.90;99.90
15328;DHT22;7764;51.430;6.840;2023-11-21T10:48:55;10.90;99.90
15328;DHT22;7764;51.430;6.840;2023-11-21T10:51:22;10.90;99.90
15328;DHT22;7764;51.430;6.840;2023-11-21T10:53:50;11.00;99.90
15328;DHT22;7764;51.430;6.840;2023-11-21T10:56:19;11.00;99.90
15328;DHT22;7764;51.430;6.840;2023-11-21T10:58:50;11.10;99.90
15328;DHT22;7764;51.430;6.840;2023-11-21T11:01:19;11.10;99.90
15328;DHT22;7764;51.430;6.840;2023-11-21T11:03:47;11.20;99.90
15328;DHT22;7764;51.430;6.840;2023-11-21T11:06:15;11.20;99.90
15328;DHT22;7764;51.430;6.840;2023-11-21T11:08:47;11.20;99.90
15328;DHT22;7764;51.430;6.840;2023-11-21T11:11:16;11.10;99.90
15328;DHT22;7764;51.430;6.840;2023-11-21T11:13:51;11.20;99.90
15328;DHT22;7764;51.430;6.840;2023-11-21T11:16:19;11.20;99.90
15328;DHT22;7764;51.430;6.840;2023-11-21T11:18:50;11.20;99.90
15328;DHT22;7764;51.430;6.840;2023-11-21T11:21:31;11.30;99.90
15328;DHT22;7764;51.430;6.840;2023-11-21T11:24:22;11.30;99.90
15328;DHT22;7764;51.430;6.840;2023-11-21T11:27:01;11.40;99.90
15328;DHT22;7764;51.430;6.840;2023-11-21T11:29:41;11.50;99.90
15328;DHT22;7764;51.430;6.840;2023-11-21T11:32:17;11.40;99.90
15328;DHT22;7764;51.430;6.840;2023-11-21T11:34:53;11.50;99.90
15328;DHT22;7764;51.430;6.840;2023-11-21T11:37:23;11.50;99.90
15328;DHT22;7764;51.430;6.840;2023-11-21T11:39:51;11.50;99.90
15328;DHT22;7764;51.430;6.840;2023-11-21T11:42:21;11.40;99.90
15328;DHT22;7764;51.430;6.840;2023-11-21T11:44:51;11.40;99.90
15328;DHT22;7764;51.430;6.840;2023-11-21T11:47:22;11.40;99.90
15328;DHT22;7764;51.430;6.840;2023-11-21T11:50:02;11.30;99.90
15328;DHT22;7764;51.430;6.840;2023-11-21T11:52:38;11.30;99.90
15328;DHT22;7764;51.430;6.840;2023-11-21T11:55:08;11.30;99.90
15328;DHT22;7764;51.430;6.840;2023-11-21T11:57:37;11.40;99.90
15328;DHT22;7764;51.430;6.840;2023-11-21T12:00:10;11.50;99.90
15328;DHT22;7764;51.430;6.840;2023-11-21T12:02:42;11.50;99.90
15328;DHT22;7764;51.430;6.840;2023-11-21T12:05:10;11.50;99.90
15328;DHT22;7764;51.430;6.840;2023-11-21T12:07:52;11.60;99.90
15328;DHT22;7764;51.430;6.840;2023-11-21T12:10:24;11.50;99.90
15328;DHT22;7764;51.430;6.840;2023-11-21T12:12:52;11.60;99.90
15328;DHT22;7764;51.430;6.840;2023-11-21T12:15:21;11.60;99.90
15328;DHT22;7764;51.430;6.840;2023-11-21T12:17:49;11.50;99.90
15328;DHT22;7764;51.430;6.840;2023-11-21T12:20:19;11.40;99.90
15328;DHT22;7764;51.430;6.840;2023-11-21T12:22:47;11.40;99.90
15328;DHT22;7764;51.430;6.840;2023-11-21T12:25:15;11.40;99.90
15328;DHT22;7764;51.430;6.840;2023-11-21T12:27:44;11.40;99.90
15328;DHT22;7764;51.430;6.840;2023-11-21T12:30:13;11.50;99.90
15328;DHT22;7764;51.430;6.840;2023-11-21T12:32:43;11.50;99.90
15328;DHT22;7764;51.430;6.840;2023-11-21T12:35:11;11.50;99.90
15328;DHT22;7764;51.430;6.840;2023-11-21T12:37:40;11.50;99.90
15328;DHT22;7764;51.430;6.840;2023-11-21T12:40:09;11.40;99.90
15328;DHT22;7764;51.430;6.840;2023-11-21T12:42:39;11.30;99.90
15328;DHT22;7764;51.430;6.840;2023-11-21T12:45:08;11.30;99.90
15328;DHT22;7764;51.430;6.840;2023-11-21T12:47:42;11.30;99.90
15328;DHT22;7764;51.430;6.840;2023-11-21T12:50:13;11.30;99.90
15328;DHT22;7764;51.430;6.840;2023-11-21T12:52:42;11.20;99.90
15328;DHT22;7764;51.430;6.840;2023-11-21T12:55:15;11.20;99.90
15328;DHT22;7764;51.430;6.840;2023-11-21T12:57:43;11.10;99.90
15328;DHT22;7764;51.430;6.840;2023-11-21T13:00:13;11.10;99.90
15328;DHT22;7764;51.430;6.840;2023-11-21T13:02:54;11.10;99.90
15328;DHT22;7764;51.430;6.840;2023-11-21T13:05:24;11.10;99.90
15328;DHT22;7764;51.430;6.840;2023-11-21T13:07:52;11.10;99.90
15328;DHT22;7764;51.430;6.840;2023-11-21T13:10:21;11.00;99.90
15328;DHT22;7764;51.430;6.840;2023-11-21T13:12:51;11.00;99.90
15328;DHT22;7764;51.430;6.840;2023-11-21T13:15:19;10.90;99.90
15328;DHT22;7764;51.430;6.840;2023-11-21T13:17:46;10.90;99.90
15328;DHT22;7764;51.430;6.840;2023-11-21T13:20:15;10.70;99.90
15328;DHT22;7764;51.430;6.840;2023-11-21T13:22:47;10.80;99.90
15328;DHT22;7764;51.430;6.840;2023-11-21T13:25:15;10.80;99.90
15328;DHT22;7764;51.430;6.840;2023-11-21T13:27:43;10.70;99.90
15328;DHT22;7764;51.430;6.840;2023-11-21T13:30:12;10.60;99.90
15328;DHT22;7764;51.430;6.840;2023-11-21T13:32:42;10.70;99.90
15328;DHT22;7764;51.430;6.840;2023-11-21T13:35:09;10.60;99.90
15328;DHT22;7764;51.430;6.840;2023-11-21T13:37:48;10.60;99.90
15328;DHT22;7764;51.430;6.840;2023-11-21T13:40:20;10.70;99.90
15328;DHT22;7764;51.430;6.840;2023-11-21T13:42:54;10.60;99.90
15328;DHT22;7764;51.430;6.840;2023-11-21T13:45:25;10.70;99.90
15328;DHT22;7764;51.430;6.840;2023-11-21T13:47:53;10.60;99.90
15328;DHT22;7764;51.430;6.840;2023-11-21T13:50:23;10.60;99.90
15328;DHT22;7764;51.430;6.840;2023-11-21T13:52:56;10.70;99.90
15328;DHT22;7764;51.430;6.840;2023-11-21T13:55:23;10.70;99.90
15328;DHT22;7764;51.430;6.840;2023-11-21T13:57:51;10.70;99.90
15328;DHT22;7764;51.430;6.840;2023-11-21T14:00:19;10.70;99.90
15328;DHT22;7764;51.430;6.840;2023-11-21T14:03:05;10.70;99.90
15328;DHT22;7764;51.430;6.840;2023-11-21T14:05:41;10.80;99.90
15328;DHT22;7764;51.430;6.840;2023-11-21T14:08:11;10.80;99.90
15328;DHT22;7764;51.430;6.840;2023-11-21T14:10:42;10.80;99.90
15328;DHT22;7764;51.430;6.840;2023-11-21T14:13:10;10.80;99.90
15328;DHT22;7764;51.430;6.840;2023-11-21T14:15:39;10.80;99.90
15328;DHT22;7764;51.430;6.840;2023-11-21T14:18:08;10.80;99.90
15328;DHT22;7764;51.430;6.840;2023-11-21T14:20:36;10.80;99.90
15328;DHT22;7764;51.430;6.840;2023-11-21T14:23:05;10.80;99.90
15328;DHT22;7764;51.430;6.840;2023-11-21T14:25:36;10.80;99.90
15328;DHT22;7764;51.430;6.840;2023-11-21T14:28:03;10.80;99.90
15328;DHT22;7764;51.430;6.840;2023-11-21T14:30:31;10.70;99.90
15328;DHT22;7764;51.430;6.840;2023-11-21T14:33:02;10.70;99.90
15328;DHT22;7764;51.430;6.840;2023-11-21T14:35:29;10.70;99.90
15328;DHT22;7764;51.430;6.840;2023-11-21T14:37:58;10.70;99.90
15328;DHT22;7764;51.430;6.840;2023-11-21T14:40:26;10.70;99.90
15328;DHT22;7764;51.430;6.840;2023-11-21T14:43:00;10.70;99.90
15328;DHT22;7764;51.430;6.840;2023-11-21T14:45:28;10.80;99.90
15328;DHT22;7764;51.430;6.840;2023-11-21T14:47:58;10.70;99.90
15328;DHT22;7764;51.430;6.840;2023-11-21T14:50:32;10.70;99.90
15328;DHT22;7764;51.430;6.840;2023-11-21T14:53:16;10.70;99.90
15328;DHT22;7764;51.430;6.840;2023-11-21T14:55:50;10.70;99.90
15328;DHT22;7764;51.430;6.840;2023-11-21T14:58:34;10.60;99.90
15328;DHT22;7764;51.430;6.840;2023-11-21T15:01:04;10.60;99.90
15328;DHT22;7764;51.430;6.840;2023-11-21T15:03:31;10.60;99.90
15328;DHT22;7764;51.430;6.840;2023-11-21T15:06:12;10.60;99.90
15328;DHT22;7764;51.430;6.840;2023-11-21T15:08:53;10.60;99.90
15328;DHT22;7764;51.430;6.840;2023-11-21T15:11:44;10.50;99.90
15328;DHT22;7764;51.430;6.840;2023-11-21T15:14:19;10.50;99.90
15328;DHT22;7764;51.430;6.840;2023-11-21T15:16:51;10.50;99.90
15328;DHT22;7764;51.430;6.840;2023-11-21T15:19:25;10.50;99.90
15328;DHT22;7764;51.430;6.840;2023-11-21T15:21:56;10.50;99.90
15328;DHT22;7764;51.430;6.840;2023-11-21T15:24:23;10.50;99.90
15328;DHT22;7764;51.430;6.840;2023-11-21T15:26:55;10.40;99.90
15328;DHT22;7764;51.430;6.840;2023-11-21T15:29:26;10.40;99.90
15328;DHT22;7764;51.430;6.840;2023-11-21T15:31:53;10.40;99.90
15328;DHT22;7764;51.430;6.840;2023-11-21T15:34:23;10.40;99.90
15328;DHT22;7764;51.430;6.840;2023-11-21T15:36:54;10.30;99.90
15328;DHT22;7764;51.430;6.840;2023-11-21T15:39:21;10.30;99.90
15328;DHT22;7764;51.430;6.840;2023-11-21T15:41:51;10.40;99.90
15328;DHT22;7764;51.430;6.840;2023-11-21T15:44:25;10.30;99.90
15328;DHT22;7764;51.430;6.840;2023-11-21T15:46:55;10.30;99.90
15328;DHT22;7764;51.430;6.840;2023-11-21T15:49:22;10.30;99.90
15328;DHT22;7764;51.430;6.840;2023-11-21T15:51:49;10.30;99.90
15328;DHT22;7764;51.430;6.840;2023-11-21T15:54:20;10.30;99.90
15328;DHT22;7764;51.430;6.840;2023-11-21T15:56:51;10.20;99.90
15328;DHT22;7764;51.430;6.840;2023-11-21T15:59:21;10.20;99.90
15328;DHT22;7764;51.430;6.840;2023-11-21T16:01:54;10.20;99.90
15328;DHT22;7764;51.430;6.840;2023-11-21T16:04:20;10.20;99.90